This is the latest recevied weather packets stored in our database for station/object IZ3MEZ-13. If no packets are shown the sender has not sent any weather packets the latest 10 day(s).
| Time | Temp. | Humidity | Pressure | Rain* | Wind** | Luminosity | Snow |
|---|---|---|---|---|---|---|---|
| 1778134528 | 14.44° C | 96% | 1014.1 hPa | 0 mm | - | 39 W/m² | - |
| 1778133923 | 13.89° C | 96% | 1014.1 hPa | 0 mm | - | 35 W/m² | - |
| 1778133318 | 13.89° C | 96% | 1014 hPa | 0 mm | - | 31 W/m² | - |
| 1778132735 | 13.89° C | 96% | 1013.9 hPa | 0 mm | - | 29 W/m² | - |
| 1778132130 | 13.33° C | 96% | 1013.8 hPa | 0 mm | - | 25 W/m² | - |
| 1778131525 | 13.33° C | 96% | 1013.6 hPa | 0 mm | - | 22 W/m² | - |
| 1778130922 | 13.33° C | 96% | 1013.7 hPa | 0 mm | - | 20 W/m² | - |
| 1778130337 | 13.33° C | 96% | 1013.4 hPa | 0 mm | - | 18 W/m² | - |
| 1778129734 | 13.89° C | 96% | 1013.5 hPa | 0 mm | - | 19 W/m² | - |
| 1778129129 | 13.89° C | 96% | 1013.3 hPa | 0 mm | - | 20 W/m² | - |
| 1778128526 | 13.33° C | 96% | 1013.3 hPa | 0 mm | - | 8 W/m² | - |
| 1778127920 | 13.33° C | 96% | 1013.1 hPa | 0 mm | - | 2 W/m² | - |
| 1778127337 | 13.33° C | 96% | 1012.9 hPa | 0 mm | - | 0 W/m² | - |
| 1778126732 | 13.33° C | 96% | 1013 hPa | 0 mm | - | 0 W/m² | - |
| 1778126129 | 13.33° C | 96% | 1012.9 hPa | 0 mm | - | 0 W/m² | - |
| 1778124919 | 13.33° C | 96% | 1012.7 hPa | 0 mm | - | 0 W/m² | - |
| 1778106924 | 13.33° C | 93% | 1012.6 hPa | 0 mm | - | 0 W/m² | - |
| 1778105118 | 13.89° C | 93% | 1012.4 hPa | 0 mm | - | 0 W/m² | - |
| 1778103324 | 13.89° C | 92% | 1012.3 hPa | 0 mm | - | 0 W/m² | - |
| 1778101528 | 14.44° C | 92% | 1012.2 hPa | 0 mm | - | 0 W/m² | - |
| 1778099720 | 14.44° C | 91% | 1012.2 hPa | 0 mm | - | 0 W/m² | - |
| 1778098526 | 15° C | 91% | 1012 hPa | 0 mm | - | 0 W/m² | - |
| 1778097924 | 15° C | 90% | 1011.8 hPa | 0 mm | - | 0 W/m² | - |
| 1778096118 | 16.11° C | 90% | 1011.6 hPa | 0 mm | - | 0 W/m² | - |
| 1778095522 | 16.11° C | 90% | 1011.6 hPa | 0 mm | - | 0 W/m² | - |
* Rain latest hour (hover to see other rain measurements)
** Current wind speed in m/s (hover to see current wind gust speed)